Time;durP1;ratioP1;P1;durP2;ratioP2;P2;SDS_P1;SDS_P2;PMS_P1;PMS_P2;Temp;Humidity;BMP_temperature;BMP_pressure;BME280_temperature;BME280_humidity;BME280_pressure;Samples;Min_cycle;Max_cycle;Signal;HPM_P1;HPM_P2
2022/07/08 00:00:53;;;;;;;;;;;;;;;;;;;;;
2022/07/08 00:03:25;;;;;;;5.70;3.00;;;;;;;16.83;62.34;99330.59;105634;1278;25458;-87
2022/07/08 00:06:06;;;;;;;5.40;2.90;;;;;;;16.86;62.45;99331.20;105747;1279;25403;-89
2022/07/08 00:08:57;;;;;;;6.80;3.60;;;;;;;16.88;62.37;99333.01;105866;1278;24675;-89
2022/07/08 00:11:51;;;;;;;7.00;3.40;;;;;;;16.88;62.49;99335.80;105683;1278;22569;-88
2022/07/08 00:14:49;;;;;;;7.10;3.70;;;;;;;16.90;62.59;99339.77;105792;1279;25362;-89
2022/07/08 00:17:27;;;;;;;6.60;3.60;;;;;;;16.86;62.56;99337.43;105785;1280;25474;-86
2022/07/08 00:20:39;;;;;;;6.60;3.30;;;;;;;16.87;62.63;99338.98;105676;1278;22838;-90
2022/07/08 00:23:24;;;;;;;6.80;3.40;;;;;;;16.88;62.78;99339.05;105751;1278;22618;-87
2022/07/08 00:26:05;;;;;;;7.60;3.40;;;;;;;16.87;62.81;99343.34;105798;1279;26480;-87
2022/07/08 00:28:43;;;;;;;5.70;2.80;;;;;;;16.87;62.89;99340.96;105730;1280;23957;-88
2022/07/08 00:31:35;;;;;;;6.30;3.00;;;;;;;16.84;62.93;99338.96;105651;1279;25361;-89
2022/07/08 00:34:06;;;;;;;6.80;3.20;;;;;;;16.83;62.99;99342.80;105715;1279;24215;-93
2022/07/08 00:36:44;;;;;;;6.00;3.30;;;;;;;16.83;63.09;99341.74;105443;1279;22703;-89
2022/07/08 00:39:55;;;;;;;6.60;3.20;;;;;;;16.84;63.15;99343.17;105739;1277;24758;-89
2022/07/08 00:42:33;;;;;;;8.00;3.80;;;;;;;16.75;63.20;99342.44;105923;1280;22536;-92
2022/07/08 00:45:13;;;;;;;9.50;4.10;;;;;;;16.70;63.25;99345.09;105443;1281;22703;-90
2022/07/08 00:47:58;;;;;;;6.70;3.60;;;;;;;16.68;63.42;99345.95;106276;1278;22622;-91
2022/07/08 00:50:53;;;;;;;9.20;3.10;;;;;;;16.65;63.48;99347.67;105665;1280;24030;-89
2022/07/08 00:53:35;;;;;;;8.40;3.80;;;;;;;16.62;63.64;99350.81;105832;1278;24196;-89
2022/07/08 00:56:11;;;;;;;7.20;3.60;;;;;;;16.64;63.68;99350.48;105720;1278;22558;-89
2022/07/08 00:59:12;;;;;;;6.80;3.30;;;;;;;16.62;63.84;99351.74;106531;1279;24508;-90
2022/07/08 01:02:04;;;;;;;;;;;;;;;;;;;;;
2022/07/08 01:05:00;;;;;;;8.30;4.40;;;;;;;16.60;64.09;99360.37;105988;1278;24218;-89
2022/07/08 01:08:17;;;;;;;8.40;4.60;;;;;;;16.58;64.12;99366.33;106013;1279;24207;-90
2022/07/08 01:11:14;;;;;;;9.70;4.30;;;;;;;16.53;64.31;99366.61;106323;1280;23576;-92
2022/07/08 01:14:07;;;;;;;8.30;4.60;;;;;;;16.47;64.43;99368.90;106075;1281;22674;-90
2022/07/08 01:17:08;;;;;;;7.90;4.70;;;;;;;16.44;64.51;99370.10;106318;1278;22655;-89
2022/07/08 01:19:50;;;;;;;8.50;5.10;;;;;;;16.43;64.75;99368.73;106019;1279;22531;-89
2022/07/08 01:22:50;;;;;;;;;;;;;;;;;;;;;
2022/07/08 01:25:47;;;;;;;8.60;4.90;;;;;;;16.38;64.72;99368.30;106013;1280;22578;-90
2022/07/08 01:28:40;;;;;;;8.30;4.30;;;;;;;16.45;64.88;99366.97;105550;1280;22534;-90
2022/07/08 01:31:41;;;;;;;7.50;3.70;;;;;;;16.41;64.87;99366.92;105807;1280;24243;-90
2022/07/08 01:35:12;;;;;;;;;;;;;;;;;;;;;
2022/07/08 01:37:53;;;;;;;7.10;4.10;;;;;;;16.39;65.17;99368.23;105941;1278;22866;-91
2022/07/08 01:43:41;;;;;;;9.10;5.00;;;;;;;16.26;65.21;99366.15;109617;1277;22571;-88
2022/07/08 01:46:26;;;;;;;7.80;4.60;;;;;;;16.26;65.54;99370.12;109364;1279;23206;-88
2022/07/08 01:49:46;;;;;;;;;;;;;;;;;;;;;
2022/07/08 01:53:15;;;;;;;8.00;4.80;;;;;;;16.29;65.66;99371.66;108793;1284;22469;-90
2022/07/08 01:56:43;;;;;;;;;;;;;;;;;;;;;
2022/07/08 02:00:21;;;;;;;;;;;;;;;;;;;;;
2022/07/08 02:03:41;;;;;;;;;;;;;;;;;;;;;
2022/07/08 02:07:00;;;;;;;;;;;;;;;;;;;;;
2022/07/08 02:10:00;;;;;;;5.10;2.80;;;;;;;16.16;66.12;99395.85;109497;1277;22388;-90
2022/07/08 02:13:17;;;;;;;6.40;3.40;;;;;;;16.13;66.18;99400.39;109366;1277;22156;-92
2022/07/08 02:16:19;;;;;;;6.90;4.10;;;;;;;16.15;66.28;99407.62;109503;1277;22458;-90
2022/07/08 02:19:03;;;;;;;6.80;3.40;;;;;;;16.10;66.53;99407.48;109623;1277;22312;-90
2022/07/08 02:21:48;;;;;;;7.40;3.90;;;;;;;16.09;66.46;99408.85;109187;1281;23243;-90
2022/07/08 02:24:46;;;;;;;7.30;3.60;;;;;;;16.13;66.55;99411.73;109612;1277;22992;-90
2022/07/08 02:27:52;;;;;;;7.30;3.50;;;;;;;16.12;66.48;99418.50;108884;1283;22492;-90
2022/07/08 02:31:02;;;;;;;;;;;;;;;;;;;;;
2022/07/08 02:34:00;;;;;;;7.40;2.90;;;;;;;15.86;66.72;99423.83;108539;1287;22489;-91
2022/07/08 02:36:43;;;;;;;7.30;3.10;;;;;;;15.84;66.97;99427.06;108494;1287;22266;-90
2022/07/08 02:39:21;;;;;;;6.20;2.50;;;;;;;15.87;67.00;99430.20;108468;1287;23167;-92
2022/07/08 02:42:31;;;;;;;5.80;2.50;;;;;;;15.85;66.99;99429.65;108614;1287;22492;-91
2022/07/08 02:45:11;;;;;;;6.20;3.20;;;;;;;15.77;66.90;99438.41;108468;1286;22392;-90
2022/07/08 02:48:04;;;;;;;7.90;3.00;;;;;;;15.71;67.30;99443.30;108417;1287;23058;-93
2022/07/08 02:51:01;;;;;;;7.20;2.90;;;;;;;15.66;67.15;99447.34;108272;1289;22411;-91
2022/07/08 02:53:30;;;;;;;6.40;2.60;;;;;;;15.63;67.22;99443.80;108406;1287;23272;-90
2022/07/08 02:56:30;;;;;;;9.30;3.10;;;;;;;15.65;67.20;99456.92;108440;1287;22351;-91
2022/07/08 02:59:28;;;;;;;8.30;3.30;;;;;;;15.65;67.29;99455.98;108153;1289;22405;-92
2022/07/08 03:02:43;;;;;;;9.00;3.30;;;;;;;15.58;67.38;99464.50;108495;1287;22581;-91
2022/07/08 03:05:32;;;;;;;8.20;3.40;;;;;;;15.50;67.44;99465.66;108631;1284;22396;-91
2022/07/08 03:08:13;;;;;;;8.90;3.00;;;;;;;15.46;67.46;99465.57;108861;1284;22400;-91
2022/07/08 03:10:57;;;;;;;7.80;2.80;;;;;;;15.45;67.50;99478.73;108824;1284;23215;-91
2022/07/08 03:13:30;;;;;;;7.30;3.00;;;;;;;15.40;67.49;99478.38;108544;1284;22424;-90
2022/07/08 03:16:25;;;;;;;12.00;3.30;;;;;;;15.38;67.60;99485.73;109066;1284;22326;-91
2022/07/08 03:19:44;;;;;;;8.00;2.80;;;;;;;15.36;67.68;99488.96;108785;1283;22341;-91
2022/07/08 03:22:32;;;;;;;8.30;2.60;;;;;;;15.34;67.68;99489.48;109184;1282;22428;-91
2022/07/08 03:25:23;;;;;;;;;;;;;;;;;;;;;
2022/07/08 03:28:28;;;;;;;;;;;;;;;;;;;;;
2022/07/08 03:31:15;;;;;;;6.80;2.40;;;;;;;15.21;67.80;99497.08;109650;1268;22160;-92
2022/07/08 03:33:52;;;;;;;8.50;1.90;;;;;;;15.16;67.88;99501.42;109625;1277;22459;-90
2022/07/08 03:36:29;;;;;;;8.60;2.30;;;;;;;15.12;68.01;99503.34;109671;1277;22177;-89
2022/07/08 03:39:02;;;;;;;7.90;2.10;;;;;;;15.09;68.10;99510.10;109508;1275;23117;-90
2022/07/08 03:45:29;;;;;;;;;;;;;;;;;;;;;
2022/07/08 03:48:29;;;;;;;6.10;2.10;;;;;;;15.05;68.40;99524.40;109502;1279;22440;-91
2022/07/08 03:51:27;;;;;;;8.40;2.50;;;;;;;14.98;68.30;99523.91;109334;1278;23236;-91
2022/07/08 03:54:00;;;;;;;8.00;1.90;;;;;;;14.96;68.40;99530.35;109248;1279;22592;-88
2022/07/08 03:56:37;;;;;;;9.70;2.30;;;;;;;14.94;68.45;99539.51;109215;1279;23150;-90
2022/07/08 03:59:30;;;;;;;10.90;2.80;;;;;;;14.90;68.62;99544.33;109438;1279;22440;-90
2022/07/08 04:02:04;;;;;;;11.10;2.90;;;;;;;14.89;68.58;99551.02;109026;1281;22470;-89
2022/07/08 04:04:54;;;;;;;9.50;2.80;;;;;;;14.83;68.81;99550.73;109480;1279;22352;-90
2022/07/08 04:07:35;;;;;;;10.60;2.40;;;;;;;14.82;68.79;99558.75;109165;1279;22638;-90
2022/07/08 04:10:22;;;;;;;;;;;;;;;;;;;;;
2022/07/08 04:13:23;;;;;;;10.50;2.40;;;;;;;14.75;68.91;99564.33;109567;1280;22362;-89
2022/07/08 04:16:15;;;;;;;;;;;;;;;;;;;;;
2022/07/08 04:19:03;;;;;;;8.60;2.30;;;;;;;14.72;68.99;99568.13;109514;1280;22350;-90
2022/07/08 04:21:40;;;;;;;9.00;3.00;;;;;;;14.66;68.96;99571.38;109277;1279;22388;-91
2022/07/08 04:24:39;;;;;;;9.20;2.50;;;;;;;14.63;69.26;99579.86;109424;1278;22415;-92
2022/07/08 04:27:28;;;;;;;10.00;2.90;;;;;;;14.54;69.09;99584.31;109350;1279;22386;-91
2022/07/08 04:30:21;;;;;;;11.60;3.20;;;;;;;14.45;69.30;99590.73;109343;1280;22352;-90
2022/07/08 04:33:14;;;;;;;8.70;2.50;;;;;;;14.42;69.42;99592.77;109623;1279;22589;-91
2022/07/08 04:35:56;;;;;;;8.50;2.60;;;;;;;14.40;69.30;99595.24;109309;1281;22409;-90
2022/07/08 04:39:10;;;;;;;11.60;3.10;;;;;;;14.37;69.48;99599.59;109603;1279;22515;-91
2022/07/08 04:45:05;;;;;;;9.50;3.00;;;;;;;14.30;69.65;99610.04;109559;1266;22469;-86
2022/07/08 04:47:52;;;;;;;9.50;3.10;;;;;;;14.29;70.16;99608.67;109693;1276;22353;-90
2022/07/08 04:51:00;;;;;;;10.90;3.50;;;;;;;14.22;70.04;99617.81;109855;1275;22429;-92
2022/07/08 04:53:37;;;;;;;11.30;3.40;;;;;;;14.17;70.04;99616.05;109666;1277;22436;-88
2022/07/08 04:56:31;;;;;;;10.90;3.30;;;;;;;14.11;70.07;99620.64;109603;1278;22342;-91
2022/07/08 04:59:29;;;;;;;;;;;;;;;;;;;;;
2022/07/08 05:02:36;;;;;;;9.80;3.20;;;;;;;14.05;69.88;99620.59;109701;1277;22480;-92
2022/07/08 05:05:24;;;;;;;10.60;3.00;;;;;;;14.10;69.92;99629.31;109584;1277;22160;-91
2022/07/08 05:08:28;;;;;;;8.80;1.90;;;;;;;14.16;69.87;99630.14;109579;1277;23146;-91
2022/07/08 05:11:32;;;;;;;;;;;;;;;;;;;;;
2022/07/08 05:14:23;;;;;;;13.70;3.60;;;;;;;14.23;69.92;99637.98;109797;1276;23720;-91
2022/07/08 05:17:47;;;;;;;;;;;;;;;;;;;;;
2022/07/08 05:20:54;;;;;;;11.20;3.00;;;;;;;14.27;69.91;99656.29;109216;1280;22222;-90
2022/07/08 05:24:25;;;;;;;;;;;;;;;;;;;;;
2022/07/08 05:28:39;;;;;;;9.60;2.80;;;;;;;14.40;69.96;99659.40;109436;1279;22344;-91
2022/07/08 05:32:12;;;;;;;8.20;2.60;;;;;;;14.48;69.92;99662.95;109459;1279;22460;-89
2022/07/08 05:35:05;;;;;;;;;;;;;;;;;;;;;
2022/07/08 05:38:45;;;;;;;;;;;;;;;;;;;;;
2022/07/08 05:42:09;;;;;;;;;;;;;;;;;;;;;
2022/07/08 05:45:28;;;;;;;;;;;;;;;;;;;;;
2022/07/08 05:48:45;;;;;;;7.40;1.90;;;;;;;14.69;69.83;99678.10;108239;1288;22217;-90
2022/07/08 05:51:41;;;;;;;;;;;;;;;;;;;;;
2022/07/08 05:54:45;;;;;;;8.40;2.60;;;;;;;14.74;69.97;99681.86;108227;1288;22369;-90
2022/07/08 05:57:31;;;;;;;7.50;1.80;;;;;;;14.81;69.92;99686.12;108125;1288;22395;-88
2022/07/08 06:00:29;;;;;;;;;;;;;;;;;;;;;
2022/07/08 06:07:40;;;;;;;;;;;;;;;;;;;;;
2022/07/08 06:10:35;;;;;;;8.80;2.20;;;;;;;14.95;69.97;99687.16;106554;1310;22408;-91
2022/07/08 06:13:40;;;;;;;7.20;2.30;;;;;;;15.08;69.76;99694.73;106380;1310;22474;-91
2022/07/08 06:16:32;;;;;;;5.00;1.80;;;;;;;15.03;69.70;99699.91;106500;1309;22244;-91
2022/07/08 06:19:10;;;;;;;7.80;2.10;;;;;;;15.02;69.83;99701.09;106787;1301;22407;-88
2022/07/08 06:21:52;;;;;;;7.10;2.20;;;;;;;15.02;69.82;99707.74;107052;1302;22745;-90
2022/07/08 06:24:59;;;;;;;;;;;;;;;;;;;;;
2022/07/08 06:28:02;;;;;;;;;;;;;;;;;;;;;
2022/07/08 06:31:30;;;;;;;6.50;2.10;;;;;;;15.08;69.91;99709.24;107032;1302;22950;-90
2022/07/08 06:33:56;;;;;;;;;;;;;;;;;;;;;
2022/07/08 06:37:10;;;;;;;4.90;1.50;;;;;;;15.30;70.10;99720.89;106920;1302;22911;-88
2022/07/08 06:40:20;;;;;;;;;;;;;;;;;;;;;
2022/07/08 06:43:49;;;;;;;;;;;;;;;;;;;;;
2022/07/08 06:47:17;;;;;;;10.30;2.60;;;;;;;15.35;70.06;99717.98;109453;1279;22159;-89
2022/07/08 06:50:05;;;;;;;;;;;;;;;;;;;;;
2022/07/08 06:52:55;;;;;;;10.00;2.70;;;;;;;15.36;70.07;99719.14;109420;1279;23255;-90
2022/07/08 06:55:36;;;;;;;7.50;2.90;;;;;;;15.24;69.96;99726.58;109225;1279;22359;-90
2022/07/08 06:58:06;;;;;;;10.80;3.60;;;;;;;15.16;69.99;99722.73;109167;1279;22457;-88
2022/07/08 07:00:36;;;;;;;12.50;3.70;;;;;;;15.21;70.23;99725.73;109411;1279;22140;-89
2022/07/08 07:03:09;;;;;;;12.50;4.20;;;;;;;15.24;70.04;99731.95;109089;1279;22346;-90
2022/07/08 07:05:47;;;;;;;15.20;4.80;;;;;;;15.18;70.08;99730.52;109034;1279;22373;-87
2022/07/08 07:08:20;;;;;;;13.50;5.40;;;;;;;15.15;70.13;99731.27;109008;1279;23292;-87
2022/07/08 07:10:56;;;;;;;13.90;6.00;;;;;;;15.03;70.07;99723.80;109155;1279;22545;-87
2022/07/08 07:13:35;;;;;;;13.50;5.10;;;;;;;15.03;70.35;99723.05;109102;1279;22341;-87
2022/07/08 07:16:13;;;;;;;16.20;5.30;;;;;;;15.07;70.33;99732.77;109160;1279;22465;-87
2022/07/08 07:18:47;;;;;;;13.90;5.20;;;;;;;15.03;70.30;99729.50;109387;1278;23086;-88
2022/07/08 07:21:24;;;;;;;12.50;4.70;;;;;;;15.01;70.36;99728.77;109159;1279;22269;-86
2022/07/08 07:24:07;;;;;;;14.60;5.80;;;;;;;15.10;70.38;99734.90;109188;1279;22451;-86
2022/07/08 07:26:38;;;;;;;14.10;5.10;;;;;;;15.13;70.48;99724.41;109068;1281;22333;-86
2022/07/08 07:29:15;;;;;;;19.40;5.40;;;;;;;15.25;70.40;99729.60;109188;1279;22390;-87
2022/07/08 07:31:44;;;;;;;14.00;5.10;;;;;;;15.32;70.34;99738.16;109029;1281;22573;-87
2022/07/08 07:34:16;;;;;;;18.00;5.20;;;;;;;15.39;70.36;99740.06;108962;1281;22400;-87
2022/07/08 07:36:45;;;;;;;14.70;5.00;;;;;;;15.49;70.31;99744.31;109063;1279;22278;-88
2022/07/08 07:39:25;;;;;;;12.30;5.40;;;;;;;15.60;70.23;99745.34;109166;1279;22272;-86
2022/07/08 07:41:55;;;;;;;15.10;4.70;;;;;;;15.68;70.13;99749.02;109172;1279;22583;-86
2022/07/08 07:44:29;;;;;;;12.50;4.40;;;;;;;15.67;70.14;99751.27;109041;1279;22291;-87
2022/07/08 07:46:56;;;;;;;11.80;4.60;;;;;;;15.67;70.17;99750.39;108779;1281;22413;-86
2022/07/08 07:49:34;;;;;;;12.30;4.30;;;;;;;15.66;70.24;99756.52;109140;1279;22142;-89
2022/07/08 07:52:10;;;;;;;10.70;4.50;;;;;;;15.67;70.21;99759.33;109175;1279;22407;-89
2022/07/08 07:54:45;;;;;;;13.50;5.50;;;;;;;15.66;70.19;99756.77;109055;1279;22457;-86
2022/07/08 07:57:36;;;;;;;15.00;4.60;;;;;;;15.56;70.23;99760.93;109063;1281;22378;-85
2022/07/08 08:00:27;;;;;;;12.90;4.60;;;;;;;15.48;70.37;99759.05;109124;1279;22216;-87
2022/07/08 08:03:08;;;;;;;15.90;5.00;;;;;;;15.51;70.46;99766.73;109386;1279;22468;-87
2022/07/08 08:05:43;;;;;;;11.00;4.80;;;;;;;15.51;70.59;99760.09;109201;1279;22180;-86
2022/07/08 08:08:33;;;;;;;;;;;;;;;;;;;;;
2022/07/08 08:11:11;;;;;;;12.50;4.20;;;;;;;15.77;70.41;99761.75;109157;1279;23070;-88
2022/07/08 08:13:40;;;;;;;12.30;4.50;;;;;;;15.80;70.23;99762.25;109088;1279;22494;-86
2022/07/08 08:16:53;;;;;;;12.80;4.90;;;;;;;15.87;70.41;99759.80;109014;1279;22425;-87
2022/07/08 08:19:34;;;;;;;21.60;4.90;;;;;;;16.06;70.53;99757.20;109137;1280;22645;-87
2022/07/08 08:22:04;;;;;;;12.80;3.90;;;;;;;16.07;70.23;99761.58;109020;1279;22473;-86
2022/07/08 08:24:36;;;;;;;10.60;4.00;;;;;;;16.07;70.25;99766.48;108977;1281;23102;-85
2022/07/08 08:27:06;;;;;;;12.30;4.30;;;;;;;16.18;70.44;99769.67;109163;1280;22354;-86
2022/07/08 08:29:38;;;;;;;14.10;4.40;;;;;;;16.38;70.52;99766.31;109047;1279;22389;-86
2022/07/08 08:32:13;;;;;;;11.80;3.80;;;;;;;16.55;70.11;99770.07;109180;1279;22458;-84
2022/07/08 08:34:46;;;;;;;10.10;4.40;;;;;;;16.51;69.95;99769.52;109172;1279;23049;-85
2022/07/08 08:37:16;;;;;;;12.90;4.10;;;;;;;16.44;69.98;99771.20;109008;1281;22291;-85
2022/07/08 08:39:48;;;;;;;13.40;3.80;;;;;;;16.45;70.03;99775.59;109175;1279;22368;-85
2022/07/08 08:42:21;;;;;;;14.30;4.70;;;;;;;16.46;70.18;99776.60;109403;1277;22959;-86
2022/07/08 08:44:51;;;;;;;10.50;4.20;;;;;;;16.57;70.07;99786.33;108812;1281;22382;-85
2022/07/08 08:47:27;;;;;;;10.80;4.10;;;;;;;16.59;69.90;99785.96;109041;1281;22512;-85
2022/07/08 08:53:13;;;;;;;10.20;2.80;;;;;;;17.11;69.61;99783.45;109077;1281;22458;-85
2022/07/08 08:56:19;;;;;;;9.60;3.50;;;;;;;17.35;69.42;99785.25;109391;1279;23190;-85
2022/07/08 08:58:50;;;;;;;12.50;4.40;;;;;;;17.50;69.55;99783.94;109131;1278;22555;-86
2022/07/08 09:01:28;;;;;;;9.70;3.30;;;;;;;17.58;69.39;99784.64;109043;1281;22292;-86
2022/07/08 09:04:03;;;;;;;11.30;4.40;;;;;;;17.69;69.04;99783.71;109226;1279;22471;-86
2022/07/08 09:07:07;;;;;;;9.40;3.50;;;;;;;17.65;68.93;99784.23;109179;1281;22204;-87
2022/07/08 09:09:47;;;;;;;9.40;3.50;;;;;;;17.76;68.93;99788.97;109042;1279;23696;-86
2022/07/08 09:12:37;;;;;;;11.00;3.70;;;;;;;17.91;69.08;99778.98;109005;1281;22289;-85
2022/07/08 09:15:07;;;;;;;15.30;4.40;;;;;;;18.19;68.48;99790.14;109056;1281;22513;-85
2022/07/08 09:17:53;;;;;;;10.00;3.70;;;;;;;18.26;68.80;99787.52;109035;1279;23240;-86
2022/07/08 09:20:47;;;;;;;12.70;3.80;;;;;;;18.37;68.64;99787.90;108876;1279;22237;-86
2022/07/08 09:23:27;;;;;;;10.20;3.30;;;;;;;18.51;68.58;99797.94;109263;1279;22391;-85
2022/07/08 09:26:21;;;;;;;;;;;;;;;;;;;;;
2022/07/08 09:29:23;;;;;;;9.70;3.40;;;;;;;18.58;67.91;99805.42;109412;1278;23598;-85
2022/07/08 09:32:38;;;;;;;11.60;3.80;;;;;;;18.46;67.91;99801.80;109189;1279;22570;-85
2022/07/08 09:36:03;;;;;;;;;;;;;;;;;;;;;
2022/07/08 09:39:09;;;;;;;;;;;;;;;;;;;;;
2022/07/08 09:42:16;;;;;;;10.20;3.60;;;;;;;18.95;67.67;99806.11;109229;1279;22260;-87
2022/07/08 09:45:17;;;;;;;9.40;3.00;;;;;;;18.92;67.93;99809.11;109081;1279;22554;-87
2022/07/08 09:48:21;;;;;;;9.20;2.90;;;;;;;18.68;67.45;99812.41;109103;1279;22869;-86
2022/07/08 09:51:11;;;;;;;9.80;3.20;;;;;;;18.50;67.76;99813.39;105062;1279;5391349;-87
2022/07/08 09:54:23;;;;;;;8.80;3.00;;;;;;;18.41;67.62;99816.92;109115;1279;23126;-85
2022/07/08 09:57:59;;;;;;;10.00;3.00;;;;;;;18.34;68.24;99818.48;109107;1281;22362;-86
2022/07/08 10:01:36;;;;;;;10.50;3.60;;;;;;;18.45;67.84;99815.31;109345;1279;22470;-85
2022/07/08 10:04:19;;;;;;;9.70;3.30;;;;;;;18.50;67.48;99816.98;109326;1279;23092;-84
2022/07/08 10:07:09;;;;;;;10.60;3.00;;;;;;;18.51;67.50;99823.76;109239;1279;22823;-83
2022/07/08 10:09:45;;;;;;;10.90;3.40;;;;;;;18.74;67.48;99821.46;109180;1279;22381;-85
2022/07/08 10:12:33;;;;;;;8.50;2.80;;;;;;;18.98;67.22;99816.30;108967;1279;22443;-86
2022/07/08 10:15:31;;;;;;;8.40;2.90;;;;;;;19.17;66.85;99823.47;109044;1279;23066;-84
2022/07/08 10:18:51;;;;;;;13.80;3.90;;;;;;;19.30;66.90;99824.42;109370;1279;22467;-85
2022/07/08 10:21:57;;;;;;;;;;;;;;;;;;;;;
2022/07/08 10:25:02;;;;;;;10.40;3.00;;;;;;;19.62;66.10;99819.52;109117;1277;22628;-89
2022/07/08 10:28:05;;;;;;;8.00;2.80;;;;;;;19.84;66.63;99816.27;108995;1281;22507;-89
2022/07/08 10:30:57;;;;;;;9.50;2.80;;;;;;;19.92;66.32;99818.15;109193;1281;22469;-85
2022/07/08 10:33:36;;;;;;;9.00;2.50;;;;;;;20.09;66.30;99814.55;109087;1279;22450;-85
2022/07/08 10:36:09;;;;;;;8.50;2.90;;;;;;;20.33;66.20;99810.86;109063;1279;22608;-85
2022/07/08 10:38:51;;;;;;;9.50;2.50;;;;;;;20.37;65.81;99811.65;109195;1279;22363;-85
2022/07/08 10:41:26;;;;;;;8.30;2.20;;;;;;;20.42;66.15;99804.81;109074;1279;23302;-85
2022/07/08 10:44:00;;;;;;;9.70;2.60;;;;;;;20.58;65.44;99803.46;109206;1279;22431;-84
2022/07/08 10:46:37;;;;;;;8.20;2.50;;;;;;;20.62;65.69;99804.47;109404;1279;23104;-84
2022/07/08 10:49:13;;;;;;;8.70;2.80;;;;;;;20.72;65.95;99798.38;109055;1281;22337;-86
2022/07/08 10:51:45;;;;;;;6.50;2.20;;;;;;;20.78;65.22;99799.73;109029;1281;22384;-85
2022/07/08 10:54:44;;;;;;;7.40;2.10;;;;;;;20.55;65.00;99799.89;108883;1279;23103;-86
2022/07/08 10:57:29;;;;;;;8.30;2.30;;;;;;;20.54;65.47;99814.89;109303;1279;22291;-89
2022/07/08 11:00:15;;;;;;;9.40;2.60;;;;;;;20.45;64.72;99819.98;109299;1279;22511;-87
2022/07/08 11:02:49;;;;;;;8.90;2.30;;;;;;;20.21;65.31;99816.20;108856;1279;22570;-87
2022/07/08 11:05:37;;;;;;;8.80;2.50;;;;;;;20.29;65.19;99812.28;109020;1279;23289;-86
2022/07/08 11:08:24;;;;;;;8.10;2.20;;;;;;;20.46;65.45;99817.14;109216;1279;22389;-86
2022/07/08 11:11:02;;;;;;;7.00;1.80;;;;;;;20.98;65.62;99809.44;109001;1280;22166;-85
2022/07/08 11:13:38;;;;;;;6.00;1.60;;;;;;;21.28;64.51;99799.58;109211;1279;22400;-85
2022/07/08 11:16:34;;;;;;;4.70;1.30;;;;;;;21.38;64.53;99808.39;109018;1279;23118;-88
2022/07/08 11:19:15;;;;;;;4.70;1.10;;;;;;;21.64;63.68;99805.84;109003;1280;22478;-89
2022/07/08 11:22:04;;;;;;;7.70;1.10;;;;;;;21.85;63.01;99814.73;109095;1279;22212;-88
2022/07/08 11:24:44;;;;;;;6.20;1.20;;;;;;;21.64;62.58;99817.05;108872;1279;22541;-86
2022/07/08 11:27:12;;;;;;;4.90;1.10;;;;;;;21.33;62.98;99809.04;109417;1278;22412;-86
2022/07/08 11:29:57;;;;;;;4.70;1.10;;;;;;;21.09;62.72;99816.27;108796;1281;22464;-86
2022/07/08 11:32:30;;;;;;;3.80;1.00;;;;;;;20.91;63.68;99815.02;109125;1279;23173;-87
2022/07/08 11:35:28;;;;;;;4.00;1.00;;;;;;;20.96;63.90;99814.91;109302;1279;23168;-89
2022/07/08 11:38:38;;;;;;;5.50;1.60;;;;;;;21.12;62.75;99802.90;109001;1279;22156;-88
2022/07/08 11:41:08;;;;;;;5.40;1.50;;;;;;;21.28;63.38;99792.04;109000;1279;22421;-86
2022/07/08 11:43:55;;;;;;;5.40;1.60;;;;;;;21.38;62.87;99793.21;109280;1279;22463;-86
2022/07/08 11:46:48;;;;;;;5.00;1.20;;;;;;;21.54;61.57;99798.70;109170;1279;23077;-85
2022/07/08 11:49:42;;;;;;;8.40;1.50;;;;;;;21.46;61.87;99796.25;109100;1279;22687;-87
2022/07/08 11:52:18;;;;;;;5.20;1.40;;;;;;;21.67;62.39;99782.79;108995;1280;22480;-84
2022/07/08 11:54:59;;;;;;;6.80;1.80;;;;;;;21.99;62.51;99775.96;108994;1279;22725;-86
2022/07/08 11:57:30;;;;;;;5.80;1.60;;;;;;;22.17;62.03;99764.56;109422;1278;22457;-85
2022/07/08 12:00:32;;;;;;;6.90;1.40;;;;;;;22.46;61.92;99762.99;109324;1278;22440;-85
2022/07/08 12:03:05;;;;;;;4.30;1.30;;;;;;;22.26;61.56;99774.43;109039;1279;22522;-84
2022/07/08 12:05:36;;;;;;;8.30;1.60;;;;;;;22.06;61.24;99772.39;109026;1280;22402;-87
2022/07/08 12:08:29;;;;;;;6.10;1.50;;;;;;;21.85;61.05;99775.98;109248;1279;22441;-86
2022/07/08 12:11:20;;;;;;;7.00;1.40;;;;;;;21.43;61.24;99776.90;109267;1280;22514;-85
2022/07/08 12:13:53;;;;;;;10.20;1.70;;;;;;;21.03;60.85;99774.14;109437;1279;23081;-84
2022/07/08 12:16:53;;;;;;;7.60;1.70;;;;;;;20.75;61.38;99776.69;109223;1279;22397;-85
2022/07/08 12:19:37;;;;;;;5.70;1.70;;;;;;;20.62;61.68;99775.03;108953;1279;22289;-84
2022/07/08 12:22:07;;;;;;;7.60;1.70;;;;;;;20.64;61.10;99787.77;109184;1281;22784;-84
2022/07/08 12:24:44;;;;;;;6.10;1.50;;;;;;;20.82;61.75;99781.63;109216;1280;22405;-85
2022/07/08 12:27:19;;;;;;;7.20;1.80;;;;;;;21.09;61.16;99770.65;109038;1280;23323;-84
2022/07/08 12:30:03;;;;;;;6.60;1.70;;;;;;;21.53;61.66;99777.77;109003;1280;22467;-85
2022/07/08 12:32:54;;;;;;;4.60;1.20;;;;;;;21.72;60.76;99769.07;109198;1280;22355;-86
2022/07/08 12:35:38;;;;;;;5.50;1.70;;;;;;;21.85;60.18;99763.83;109236;1281;23149;-85
2022/07/08 12:38:13;;;;;;;7.20;1.50;;;;;;;21.76;59.51;99760.42;109169;1280;22551;-85
2022/07/08 12:40:43;;;;;;;6.20;1.50;;;;;;;21.97;60.29;99752.91;109192;1280;22477;-85
2022/07/08 12:43:16;;;;;;;8.10;1.50;;;;;;;22.19;60.09;99748.35;109189;1279;22409;-86
2022/07/08 12:45:46;;;;;;;4.30;1.20;;;;;;;22.18;59.38;99748.61;108985;1281;22342;-85
2022/07/08 12:48:16;;;;;;;5.90;1.20;;;;;;;22.26;59.02;99743.56;109372;1279;22469;-84
2022/07/08 12:50:50;;;;;;;5.30;1.30;;;;;;;22.55;59.53;99741.49;109337;1279;23066;-84
2022/07/08 12:53:32;;;;;;;6.40;1.40;;;;;;;22.67;59.48;99738.64;108889;1281;22457;-84
2022/07/08 12:56:26;;;;;;;4.60;1.20;;;;;;;22.72;59.10;99742.49;109170;1279;22396;-84
2022/07/08 12:59:01;;;;;;;4.80;1.30;;;;;;;22.62;58.40;99735.38;109005;1280;22411;-84
2022/07/08 13:01:35;;;;;;;5.80;1.30;;;;;;;22.30;58.52;99744.08;109157;1280;22659;-86
2022/07/08 13:04:15;;;;;;;4.00;1.30;;;;;;;21.92;58.71;99740.96;109185;1280;22491;-84
2022/07/08 13:07:00;;;;;;;6.20;1.20;;;;;;;21.54;59.15;99741.93;109178;1279;22396;-85
2022/07/08 13:09:36;;;;;;;5.00;1.30;;;;;;;21.27;58.53;99751.52;109129;1281;23233;-86
2022/07/08 13:12:25;;;;;;;5.30;1.10;;;;;;;20.85;58.43;99743.23;109036;1280;22424;-84
2022/07/08 13:15:00;;;;;;;5.30;1.10;;;;;;;20.57;58.67;99752.16;109187;1280;22971;-84
2022/07/08 13:17:35;;;;;;;7.30;1.30;;;;;;;20.39;58.67;99742.95;108988;1281;22517;-86
2022/07/08 13:20:03;;;;;;;6.20;1.00;;;;;;;20.31;58.64;99749.94;109183;1279;22545;-84
2022/07/08 13:22:35;;;;;;;5.00;1.00;;;;;;;20.27;58.36;99753.61;109354;1279;22514;-84
2022/07/08 13:25:52;;;;;;;;;;;;;;;;;;;;;
2022/07/08 13:28:51;;;;;;;4.40;1.00;;;;;;;20.79;58.48;99740.48;109008;1280;22395;-86
2022/07/08 13:31:27;;;;;;;3.80;0.90;;;;;;;20.80;57.71;99734.59;109143;1281;22433;-84
2022/07/08 13:34:30;;;;;;;5.30;1.00;;;;;;;20.99;58.61;99733.09;109011;1280;22357;-85
2022/07/08 13:37:29;;;;;;;6.20;1.10;;;;;;;21.38;58.22;99731.17;109200;1281;22617;-84
2022/07/08 13:40:17;;;;;;;5.60;0.90;;;;;;;21.49;57.16;99733.92;108974;1281;22282;-84
2022/07/08 13:42:47;;;;;;;5.90;1.40;;;;;;;21.73;57.83;99725.20;108951;1281;22402;-84
2022/07/08 13:45:44;;;;;;;5.40;1.10;;;;;;;21.92;57.54;99731.85;109040;1280;23811;-85
2022/07/08 13:48:53;;;;;;;;;;;;;;;;;;;;;
2022/07/08 13:52:48;;;;;;;;;;;;;;;;;;;;;
2022/07/08 13:55:50;;;;;;;5.50;0.90;;;;;;;22.64;56.31;99724.67;107720;1291;22570;-85
2022/07/08 13:59:15;;;;;;;;;;;;;;;;;;;;;
2022/07/08 14:06:35;;;;;;;4.80;1.10;;;;;;;22.72;55.84;99703.48;107596;1293;22584;-85
2022/07/08 14:09:57;;;;;;;5.30;1.10;;;;;;;22.32;56.00;99709.89;107543;1293;22485;-90
2022/07/08 14:12:59;;;;;;;6.10;1.40;;;;;;;22.11;56.55;99717.42;107881;1290;22510;-84
2022/07/08 14:15:28;;;;;;;9.50;0.90;;;;;;;22.03;56.09;99719.61;107934;1290;22606;-84
2022/07/08 14:17:58;;;;;;;7.00;1.30;;;;;;;22.10;56.28;99705.86;107567;1292;22654;-86
2022/07/08 14:20:25;;;;;;;7.70;1.10;;;;;;;22.43;56.44;99707.00;107856;1291;22518;-84
2022/07/08 14:22:54;;;;;;;4.30;0.80;;;;;;;22.88;55.92;99713.80;107837;1291;22431;-85
2022/07/08 14:25:24;;;;;;;7.00;1.10;;;;;;;22.62;54.70;99717.66;107846;1291;22838;-86
2022/07/08 14:28:03;;;;;;;4.50;0.90;;;;;;;22.14;55.05;99718.36;107873;1291;23002;-84
2022/07/08 14:30:30;;;;;;;6.10;1.10;;;;;;;21.77;55.13;99728.64;107935;1282;22415;-85